Time;durP1;ratioP1;P1;durP2;ratioP2;P2;SDS_P1;SDS_P2;PMS_P1;PMS_P2;Temp;Humidity;BMP_temperature;BMP_pressure;BME280_temperature;BME280_humidity;BME280_pressure;Samples;Min_cycle;Max_cycle;Signal;HPM_P1;HPM_P2
2022/01/23 00:00:35;;;;;;;5.78;4.60;;;0.30;99.90;;;;;;7265335;19;2005362;-79
2022/01/23 00:03:05;;;;;;;6.97;4.93;;;0.10;99.90;;;;;;7391726;19;20340;-80
2022/01/23 00:05:37;;;;;;;9.05;6.40;;;0.10;99.90;;;;;;7389206;19;20321;-80
2022/01/23 00:08:05;;;;;;;10.02;7.95;;;0.10;99.90;;;;;;7389321;19;20487;-79
2022/01/23 00:10:32;;;;;;;7.55;6.28;;;0.20;99.90;;;;;;7390891;19;20384;-81
2022/01/23 00:13:11;;;;;;;7.90;5.85;;;0.20;99.90;;;;;;7391787;19;20864;-80
2022/01/23 00:18:21;;;;;;;5.95;4.65;;;0.20;99.90;;;;;;7388459;19;20879;-79
2022/01/23 00:20:47;;;;;;;6.20;5.60;;;0.30;99.90;;;;;;7387215;19;20336;-79
2022/01/23 00:23:28;;;;;;;7.03;4.90;;;0.30;99.90;;;;;;7385680;19;20331;-80
2022/01/23 00:31:24;;;;;;;5.80;4.40;;;0.40;99.90;;;;;;7395391;19;20344;-79
2022/01/23 00:33:51;;;;;;;3.95;3.47;;;0.50;99.90;;;;;;7398420;19;20371;-80
2022/01/23 00:36:17;;;;;;;4.88;4.13;;;0.50;99.90;;;;;;7380557;19;20325;-79
2022/01/23 00:38:43;;;;;;;7.75;4.25;;;0.60;99.90;;;;;;7393382;19;20353;-79
2022/01/23 00:41:09;;;;;;;6.45;4.43;;;0.60;99.90;;;;;;7391395;19;20909;-80
2022/01/23 00:43:38;;;;;;;4.03;3.58;;;0.60;99.90;;;;;;7390552;19;20345;-78
2022/01/23 00:46:22;;;;;;;6.40;4.28;;;0.70;99.90;;;;;;7389736;19;21195;-79
2022/01/23 00:51:32;;;;;;;4.32;3.83;;;0.80;99.90;;;;;;7387147;19;20393;-83
2022/01/23 00:54:02;;;;;;;3.95;3.60;;;0.80;99.90;;;;;;7388332;19;20337;-79
2022/01/23 00:56:31;;;;;;;4.38;3.92;;;0.80;99.90;;;;;;7388273;19;20325;-79
2022/01/23 00:58:56;;;;;;;4.55;3.72;;;0.90;99.90;;;;;;7387950;19;20891;-79
2022/01/23 01:01:22;;;;;;;5.18;4.43;;;0.90;99.90;;;;;;7390065;19;20348;-80
2022/01/23 01:03:48;;;;;;;4.90;4.15;;;1.00;99.90;;;;;;7387981;19;20359;-79
2022/01/23 01:06:14;;;;;;;7.40;4.40;;;1.00;99.90;;;;;;7399239;19;20316;-81
2022/01/23 01:08:41;;;;;;;5.03;4.35;;;1.10;99.90;;;;;;7394923;19;20396;-78
2022/01/23 01:14:07;;;;;;;4.00;3.67;;;1.10;99.90;;;;;;7385422;19;20393;-79
2022/01/23 01:16:55;;;;;;;4.63;4.03;;;1.10;99.90;;;;;;7388586;19;20473;-79
2022/01/23 01:36:00;;;;;;;4.30;3.90;;;1.40;99.90;;;;;;7288391;19;2007707;-80
2022/01/23 01:38:26;;;;;;;4.93;4.27;;;1.40;99.90;;;;;;7294574;19;2008064;-80
2022/01/23 01:40:54;;;;;;;4.80;3.80;;;1.40;99.90;;;;;;7390813;19;20326;-83
2022/01/23 01:43:20;;;;;;;3.90;3.50;;;1.40;99.90;;;;;;7386069;19;20861;-80
2022/01/23 01:45:46;;;;;;;3.92;3.63;;;1.60;99.90;;;;;;7385846;19;20320;-80
2022/01/23 01:48:23;;;;;;;3.65;3.33;;;1.50;99.90;;;;;;7388385;19;20630;-80
2022/01/23 01:50:54;;;;;;;3.92;3.50;;;1.50;99.90;;;;;;7285793;19;2004637;-80
2022/01/23 01:53:21;;;;;;;3.72;3.38;;;1.50;99.90;;;;;;7371058;19;20344;-79
2022/01/23 01:55:50;;;;;;;4.28;3.70;;;1.60;99.90;;;;;;7387841;19;20325;-81
2022/01/23 02:09:38;;;;;;;5.55;3.35;;;1.70;99.90;;;;;;7289944;19;2008192;-82
2022/01/23 02:23:10;;;;;;;4.35;3.40;;;1.90;99.90;;;;;;7271021;19;2007908;-79
2022/01/23 02:50:48;;;;;;;5.35;4.00;;;2.20;99.90;;;;;;7390216;19;20333;-79
2022/01/23 02:56:02;;;;;;;5.43;4.00;;;2.20;99.90;;;;;;7288705;19;2005165;-79
2022/01/23 02:58:47;;;;;;;5.10;4.60;;;2.30;99.90;;;;;;7389706;19;21224;-82
2022/01/23 03:01:18;;;;;;;4.97;4.28;;;2.30;99.90;;;;;;7367369;19;20832;-79
2022/01/23 03:04:22;;;;;;;5.47;4.50;;;2.30;99.90;;;;;;7286542;19;2004428;-80
2022/01/23 03:12:52;;;;;;;5.70;4.77;;;2.30;99.90;;;;;;7398178;19;20380;-80
2022/01/23 03:15:00;;;;;;;6.50;5.10;;;2.30;99.90;;;;;;7292342;19;2007238;-80
2022/01/23 03:33:33;;;;;;;5.45;4.50;;;2.50;99.90;;;;;;7387542;19;21166;-80
2022/01/23 03:35:59;;;;;;;5.88;5.28;;;2.50;99.90;;;;;;7389042;19;20345;-79
2022/01/23 03:38:25;;;;;;;5.28;4.78;;;2.60;99.90;;;;;;7388607;19;20320;-79
2022/01/23 03:40:51;;;;;;;5.18;4.68;;;2.60;99.90;;;;;;7387381;19;20308;-79
2022/01/23 03:43:25;;;;;;;6.38;5.32;;;2.60;99.90;;;;;;7397023;19;20308;-79
2022/01/23 03:50:54;;;;;;;7.90;5.60;;;2.60;99.90;;;;;;7393090;19;20323;-79
2022/01/23 03:53:36;;;;;;;6.40;5.13;;;2.60;99.90;;;;;;7391171;19;20349;-79
2022/01/23 03:56:02;;;;;;;5.67;5.13;;;2.80;99.90;;;;;;7387161;19;20337;-79
2022/01/23 03:58:29;;;;;;;6.00;5.35;;;2.80;99.90;;;;;;7388378;19;20309;-80
2022/01/23 04:00:55;;;;;;;6.75;5.65;;;2.60;99.90;;;;;;7389745;19;21005;-80
2022/01/23 04:03:21;;;;;;;6.13;5.53;;;2.60;99.90;;;;;;7331757;19;20328;-80
2022/01/23 04:05:47;;;;;;;7.70;5.65;;;2.70;99.90;;;;;;7249629;19;20878;-80
2022/01/23 04:08:15;;;;;;;6.93;6.18;;;2.70;99.90;;;;;;7361158;19;20312;-79
2022/01/23 04:10:41;;;;;;;6.10;5.50;;;2.70;99.90;;;;;;7392354;19;20317;-80
2022/01/23 04:15:52;;;;;;;6.82;5.80;;;2.70;99.90;;;;;;7399811;19;20956;-81
2022/01/23 04:21:05;;;;;;;6.30;5.70;;;2.70;99.90;;;;;;7387613;19;20309;-80
2022/01/23 04:32:48;;;;;;;6.22;5.63;;;2.80;99.90;;;;;;7286214;19;2004480;-80
2022/01/23 04:34:38;;;;;;;6.45;5.85;;;2.80;99.90;;;;;;7387409;19;20336;-81
2022/01/23 04:45:35;;;;;;;5.63;5.13;;;2.90;99.90;;;;;;7288093;19;2004459;-82
2022/01/23 05:04:46;;;;;;;5.50;5.00;;;3.20;99.90;;;;;;7257366;19;2004432;-80
2022/01/23 05:07:30;;;;;;;5.65;5.03;;;3.20;99.90;;;;;;7293032;19;2004354;-80
2022/01/23 05:10:14;;;;;;;6.47;5.47;;;3.20;99.90;;;;;;7397218;19;20404;-80
2022/01/23 05:12:46;;;;;;;6.82;6.13;;;3.20;99.90;;;;;;7387011;19;20328;-80
2022/01/23 05:15:12;;;;;;;5.57;5.07;;;3.20;99.90;;;;;;7389426;19;20300;-80
2022/01/23 05:17:38;;;;;;;5.97;5.35;;;3.20;99.90;;;;;;7392924;19;20324;-80
2022/01/23 05:20:05;;;;;;;5.57;5.07;;;3.30;99.90;;;;;;7386084;19;20337;-81
2022/01/23 05:22:39;;;;;;;6.00;5.40;;;3.20;99.90;;;;;;7389376;19;20324;-80
2022/01/23 05:25:22;;;;;;;5.90;4.93;;;3.20;99.90;;;;;;7392660;19;20336;-81
2022/01/23 05:27:51;;;;;;;4.85;4.45;;;3.30;99.90;;;;;;7289816;19;2004609;-81
2022/01/23 05:30:17;;;;;;;6.55;5.35;;;3.30;99.90;;;;;;7383460;19;20373;-82
2022/01/23 05:32:43;;;;;;;5.30;4.67;;;3.30;99.90;;;;;;7385547;19;20990;-80
2022/01/23 05:35:10;;;;;;;5.40;4.90;;;3.40;99.90;;;;;;7385461;19;20686;-80
2022/01/23 05:37:39;;;;;;;5.70;4.95;;;3.40;99.90;;;;;;7386964;19;21070;-80
2022/01/23 05:40:10;;;;;;;5.45;4.95;;;3.40;99.90;;;;;;7381364;19;20441;-80
2022/01/23 05:42:39;;;;;;;5.03;4.53;;;3.30;99.90;;;;;;7383833;19;20316;-79
2022/01/23 05:45:05;;;;;;;5.68;5.07;;;3.30;99.90;;;;;;7383945;19;20333;-79
2022/01/23 05:47:51;;;;;;;6.47;5.28;;;3.30;99.90;;;;;;7280290;19;2004579;-82
2022/01/23 05:50:36;;;;;;;6.35;4.88;;;3.40;99.90;;;;;;7378384;19;20340;-79
2022/01/23 05:53:22;;;;;;;5.20;4.70;;;3.40;99.90;;;;;;7390213;19;20336;-79
2022/01/23 05:56:06;;;;;;;5.15;4.65;;;3.40;99.90;;;;;;7287445;19;2008557;-79
2022/01/23 05:58:53;;;;;;;5.45;4.82;;;3.40;99.90;;;;;;7283521;19;2004475;-80
2022/01/23 06:01:21;;;;;;;6.00;5.40;;;3.40;99.90;;;;;;7391741;19;20289;-80
2022/01/23 06:03:49;;;;;;;4.90;4.32;;;3.50;99.90;;;;;;7390091;19;20406;-80
2022/01/23 06:06:19;;;;;;;5.47;4.97;;;3.40;99.90;;;;;;7391780;19;20344;-80
2022/01/23 06:08:45;;;;;;;5.38;4.60;;;3.50;99.90;;;;;;7389591;19;20316;-80
2022/01/23 06:11:11;;;;;;;4.55;4.15;;;3.40;99.90;;;;;;7389482;19;20408;-79
2022/01/23 06:13:39;;;;;;;4.73;4.33;;;3.40;99.90;;;;;;7347501;19;20388;-78
2022/01/23 06:16:06;;;;;;;5.05;4.30;;;3.50;99.90;;;;;;7396716;19;20340;-81
2022/01/23 06:18:36;;;;;;;4.27;3.87;;;3.50;99.90;;;;;;7396718;19;20991;-79
2022/01/23 06:21:21;;;;;;;4.68;4.28;;;3.50;99.90;;;;;;7293073;19;2004433;-78
2022/01/23 06:24:44;;;;;;;4.30;3.90;;;3.40;99.90;;;;;;7391497;19;20316;-79
2022/01/23 06:27:01;;;;;;;4.13;3.72;;;3.50;99.90;;;;;;7288180;19;2004279;-78
2022/01/23 06:29:30;;;;;;;4.20;3.85;;;3.50;99.90;;;;;;7386143;19;20332;-80
2022/01/23 06:31:58;;;;;;;3.88;3.50;;;3.60;99.90;;;;;;7388779;19;20341;-79
2022/01/23 06:34:25;;;;;;;3.72;3.42;;;3.60;99.90;;;;;;7384708;19;20305;-80
2022/01/23 06:36:52;;;;;;;3.80;3.50;;;3.70;99.90;;;;;;7388765;19;20320;-79
2022/01/23 06:39:19;;;;;;;3.40;3.10;;;3.50;99.90;;;;;;7385931;19;20354;-79
2022/01/23 06:41:45;;;;;;;3.50;3.20;;;3.60;99.90;;;;;;7388715;19;20321;-80
2022/01/23 06:44:34;;;;;;;3.23;2.83;;;3.60;99.90;;;;;;7283451;19;2004415;-80
2022/01/23 06:47:00;;;;;;;3.05;2.83;;;3.80;99.90;;;;;;7388405;19;20308;-79
2022/01/23 06:49:26;;;;;;;3.47;3.17;;;3.60;99.90;;;;;;7386066;19;20872;-79
2022/01/23 06:51:52;;;;;;;3.40;3.10;;;3.80;99.90;;;;;;7393726;19;20325;-80
2022/01/23 06:54:19;;;;;;;3.40;3.10;;;3.70;99.90;;;;;;7395738;19;20331;-79
2022/01/23 06:56:45;;;;;;;3.67;3.25;;;3.70;99.90;;;;;;7393492;19;20344;-81
2022/01/23 06:59:11;;;;;;;3.80;3.50;;;3.70;99.90;;;;;;7391898;19;20335;-79
2022/01/23 07:01:41;;;;;;;5.10;4.70;;;3.70;99.90;;;;;;7393220;19;20323;-80
2022/01/23 07:04:36;;;;;;;4.80;4.40;;;3.70;99.90;;;;;;7287540;19;2004933;-81
2022/01/23 07:07:28;;;;;;;4.60;4.20;;;3.70;99.90;;;;;;7288645;19;2004504;-78
2022/01/23 07:10:21;;;;;;;5.15;4.65;;;3.70;99.90;;;;;;7289288;19;2006260;-80
2022/01/23 07:13:04;;;;;;;5.30;4.80;;;3.70;99.90;;;;;;7388346;19;20348;-79
2022/01/23 07:15:43;;;;;;;5.47;4.97;;;3.80;99.90;;;;;;7386937;19;20340;-80
2022/01/23 07:18:31;;;;;;;5.20;4.70;;;3.80;99.90;;;;;;7286049;19;2004445;-79
2022/01/23 07:21:14;;;;;;;6.88;5.43;;;3.80;99.90;;;;;;7287627;19;2004614;-79
2022/01/23 07:23:50;;;;;;;5.30;4.80;;;3.80;99.90;;;;;;7394746;19;20313;-81
2022/01/23 07:26:18;;;;;;;5.95;5.32;;;3.80;99.90;;;;;;7393310;19;20351;-80
2022/01/23 07:28:45;;;;;;;4.85;4.43;;;3.80;99.90;;;;;;7388711;19;20423;-77
2022/01/23 07:31:13;;;;;;;5.40;4.53;;;3.80;99.90;;;;;;7389067;19;20356;-79
2022/01/23 07:33:39;;;;;;;4.07;3.75;;;3.80;99.90;;;;;;7385241;19;20321;-78
2022/01/23 07:36:06;;;;;;;4.80;4.30;;;3.90;99.90;;;;;;7372499;19;20395;-80
2022/01/23 07:38:31;;;;;;;6.38;4.78;;;4.00;99.90;;;;;;7387763;19;20355;-79
2022/01/23 07:41:10;;;;;;;6.93;5.32;;;3.90;99.90;;;;;;7289970;19;2004423;-80
2022/01/23 07:43:48;;;;;;;6.45;4.88;;;3.90;99.90;;;;;;7281857;19;2004713;-78
2022/01/23 07:46:33;;;;;;;5.07;4.38;;;4.00;99.90;;;;;;7283801;19;2004470;-79
2022/01/23 07:49:18;;;;;;;3.75;3.30;;;4.00;99.90;;;;;;7387383;19;20404;-79
2022/01/23 07:52:04;;;;;;;3.40;3.10;;;4.10;99.90;;;;;;7389436;19;20439;-81
2022/01/23 07:54:40;;;;;;;3.72;3.30;;;4.00;99.90;;;;;;7391994;19;20316;-80
2022/01/23 07:57:24;;;;;;;7.68;3.35;;;4.00;99.90;;;;;;7288037;19;2004391;-80
2022/01/23 08:00:18;;;;;;;3.53;3.22;;;4.00;99.90;;;;;;7280455;19;2005757;-80
2022/01/23 08:02:44;;;;;;;3.92;3.60;;;4.00;99.90;;;;;;7383155;19;21214;-79
2022/01/23 08:05:28;;;;;;;3.90;3.53;;;4.10;99.90;;;;;;7382441;19;20313;-79
2022/01/23 08:08:23;;;;;;;3.60;3.30;;;4.10;99.90;;;;;;7282073;19;2008457;-79
2022/01/23 08:11:04;;;;;;;3.20;2.90;;;4.10;99.90;;;;;;7284053;19;2005290;-80
2022/01/23 08:13:30;;;;;;;3.80;3.40;;;4.10;99.90;;;;;;7382779;19;20315;-79
2022/01/23 08:15:56;;;;;;;3.73;3.43;;;4.20;99.90;;;;;;7383783;19;20317;-78
2022/01/23 08:18:21;;;;;;;3.55;3.25;;;4.30;99.90;;;;;;7384901;19;20324;-80
2022/01/23 08:20:50;;;;;;;3.60;3.30;;;4.20;99.90;;;;;;7386924;19;20974;-79
2022/01/23 08:23:15;;;;;;;4.03;3.73;;;4.20;99.90;;;;;;7384910;19;20355;-78
2022/01/23 08:25:41;;;;;;;3.50;3.20;;;4.30;99.90;;;;;;7365860;19;20391;-79
2022/01/23 08:28:10;;;;;;;2.90;2.60;;;4.40;99.90;;;;;;7383269;19;20320;-78
2022/01/23 08:30:36;;;;;;;4.13;3.28;;;4.40;99.90;;;;;;7381707;19;20316;-78
2022/01/23 08:33:02;;;;;;;3.53;3.23;;;4.50;99.90;;;;;;7384798;19;20308;-79
2022/01/23 08:35:28;;;;;;;3.40;3.10;;;4.50;99.90;;;;;;7382267;19;20352;-78
2022/01/23 08:37:54;;;;;;;3.47;3.17;;;4.50;99.90;;;;;;7389227;19;20313;-79
2022/01/23 08:40:34;;;;;;;3.30;3.00;;;4.60;99.90;;;;;;7388289;19;20332;-78
2022/01/23 08:43:00;;;;;;;3.10;2.90;;;4.50;99.90;;;;;;7385396;19;20342;-78
2022/01/23 08:45:26;;;;;;;3.07;2.80;;;4.60;99.90;;;;;;7381853;19;20325;-78
2022/01/23 08:47:51;;;;;;;3.15;2.85;;;4.60;99.90;;;;;;7382709;19;20340;-77
2022/01/23 08:50:17;;;;;;;3.33;3.10;;;4.50;99.90;;;;;;7381760;19;20447;-78
2022/01/23 08:52:43;;;;;;;2.72;2.53;;;4.70;99.90;;;;;;7383102;19;20311;-78
2022/01/23 08:55:08;;;;;;;2.87;2.67;;;4.50;99.90;;;;;;7380960;19;20486;-79
2022/01/23 08:57:34;;;;;;;4.00;3.70;;;4.50;99.90;;;;;;7388437;19;20312;-80
2022/01/23 09:00:00;;;;;;;5.20;4.22;;;4.50;99.90;;;;;;7382656;19;20321;-80
2022/01/23 09:02:27;;;;;;;3.35;3.05;;;4.50;99.90;;;;;;7386786;19;20319;-78
2022/01/23 09:04:53;;;;;;;3.92;3.47;;;4.60;99.90;;;;;;7380337;19;20719;-78
2022/01/23 09:07:22;;;;;;;3.50;3.20;;;4.60;99.90;;;;;;7385330;19;20304;-79
2022/01/23 09:09:48;;;;;;;6.82;5.75;;;4.60;99.90;;;;;;7385375;19;20320;-79
2022/01/23 09:15:05;;;;;;;3.38;3.08;;;4.70;99.90;;;;;;7364450;19;20388;-81
2022/01/23 09:17:30;;;;;;;3.90;3.60;;;4.80;99.90;;;;;;7384987;19;20332;-80
2022/01/23 09:19:56;;;;;;;3.35;3.05;;;4.70;99.90;;;;;;7373609;19;20363;-80
2022/01/23 09:22:22;;;;;;;3.83;3.53;;;4.80;99.90;;;;;;7386426;19;20995;-80
2022/01/23 09:24:48;;;;;;;3.80;3.50;;;4.70;99.90;;;;;;7384001;19;20412;-79
2022/01/23 09:27:19;;;;;;;4.05;3.72;;;4.70;99.90;;;;;;7387033;19;20364;-78
2022/01/23 09:29:47;;;;;;;2.75;2.50;;;4.80;99.90;;;;;;7384418;19;20379;-79
2022/01/23 09:32:14;;;;;;;3.15;2.85;;;4.80;99.90;;;;;;7381902;19;20349;-79
2022/01/23 09:34:41;;;;;;;4.07;3.77;;;4.90;99.90;;;;;;7365083;19;21148;-78
2022/01/23 09:37:09;;;;;;;3.58;3.28;;;4.90;99.90;;;;;;7385453;19;20945;-81
2022/01/23 09:39:35;;;;;;;4.50;4.07;;;4.90;99.90;;;;;;7383267;19;20324;-79
2022/01/23 09:42:02;;;;;;;3.53;3.23;;;4.90;99.90;;;;;;7382846;19;20332;-79
2022/01/23 09:44:31;;;;;;;2.97;2.72;;;4.90;99.90;;;;;;7380823;19;20329;-79
2022/01/23 09:46:57;;;;;;;3.50;3.20;;;5.00;99.90;;;;;;7381721;19;20763;-79
2022/01/23 09:49:23;;;;;;;3.23;2.93;;;5.00;99.90;;;;;;7381520;19;20317;-79
2022/01/23 09:51:50;;;;;;;3.97;3.50;;;5.20;99.90;;;;;;7381010;19;20351;-79
2022/01/23 09:54:16;;;;;;;3.92;3.40;;;5.10;99.90;;;;;;7380824;19;20945;-79
2022/01/23 09:56:43;;;;;;;3.72;3.17;;;5.10;99.90;;;;;;7383147;19;20349;-80
2022/01/23 09:59:12;;;;;;;4.15;3.72;;;5.20;99.90;;;;;;7384674;19;20350;-80
2022/01/23 10:01:42;;;;;;;2.65;2.40;;;5.30;99.90;;;;;;7380764;19;20337;-79
2022/01/23 10:04:08;;;;;;;3.25;2.95;;;5.20;99.90;;;;;;7372243;19;20353;-79
2022/01/23 10:06:34;;;;;;;3.78;3.25;;;5.20;99.90;;;;;;7383192;19;20320;-79
2022/01/23 10:09:00;;;;;;;4.72;3.97;;;5.20;99.90;;;;;;7380437;19;20939;-79
2022/01/23 10:11:29;;;;;;;3.40;2.87;;;5.20;99.90;;;;;;7379681;19;20344;-79
2022/01/23 10:13:55;;;;;;;4.55;3.13;;;5.20;99.90;;;;;;7380616;19;20321;-80
2022/01/23 10:16:21;;;;;;;3.85;2.83;;;5.20;99.90;;;;;;7388360;19;20340;-79
2022/01/23 10:18:47;;;;;;;3.38;2.70;;;5.30;99.90;;;;;;7385735;19;20324;-79
2022/01/23 10:21:13;;;;;;;3.63;3.20;;;5.20;99.90;;;;;;7384206;19;20375;-78
2022/01/23 10:23:39;;;;;;;4.25;3.63;;;5.30;99.90;;;;;;7378815;19;20792;-79
2022/01/23 10:26:05;;;;;;;4.00;3.17;;;5.30;99.90;;;;;;7380686;19;20345;-78
2022/01/23 10:28:33;;;;;;;5.05;3.05;;;5.50;99.90;;;;;;7382118;19;20353;-79
2022/01/23 10:31:02;;;;;;;2.97;2.70;;;5.40;99.90;;;;;;7380690;19;20331;-79
2022/01/23 10:33:35;;;;;;;2.67;2.47;;;5.40;99.90;;;;;;7376514;19;20367;-80
2022/01/23 10:36:15;;;;;;;2.15;2.05;;;5.50;99.90;;;;;;7380862;19;21243;-80
2022/01/23 10:38:51;;;;;;;2.10;1.90;;;5.50;99.90;;;;;;7279076;19;2004435;-79
2022/01/23 10:49:51;;;;;;;1.92;1.83;;;5.70;99.90;;;;;;7284106;19;2008187;-79
2022/01/23 10:52:24;;;;;;;1.98;1.88;;;5.80;99.90;;;;;;7384949;19;20337;-79
2022/01/23 10:54:50;;;;;;;1.77;1.67;;;5.70;99.90;;;;;;7386300;19;20309;-79
2022/01/23 10:57:15;;;;;;;1.70;1.60;;;5.70;99.90;;;;;;7387944;19;20904;-79
2022/01/23 10:59:52;;;;;;;1.73;1.63;;;5.80;99.90;;;;;;7389688;19;20312;-80
2022/01/23 11:02:25;;;;;;;1.50;1.40;;;5.70;99.90;;;;;;7292516;19;2004616;-79
2022/01/23 11:04:52;;;;;;;2.67;2.47;;;5.90;99.90;;;;;;7283799;19;2005081;-82
2022/01/23 11:07:18;;;;;;;1.63;1.52;;;5.80;99.90;;;;;;7368666;19;21141;-80
2022/01/23 11:09:43;;;;;;;1.90;1.70;;;5.80;99.90;;;;;;7385255;19;20304;-79
2022/01/23 11:12:22;;;;;;;1.90;1.80;;;5.90;99.90;;;;;;7386840;19;20321;-81
2022/01/23 11:17:52;;;;;;;3.92;3.08;;;5.80;99.90;;;;;;7285230;19;2006446;-79
2022/01/23 11:20:35;;;;;;;4.40;3.78;;;5.80;99.90;;;;;;7383825;19;20350;-79
2022/01/23 11:23:22;;;;;;;2.92;2.65;;;5.90;99.90;;;;;;7386853;19;20366;-81
2022/01/23 11:25:57;;;;;;;2.67;2.35;;;5.90;99.90;;;;;;7386845;19;20300;-80
2022/01/23 11:28:36;;;;;;;3.15;2.65;;;5.90;99.90;;;;;;7387309;19;20344;-81
2022/01/23 11:31:04;;;;;;;2.08;1.90;;;5.90;99.90;;;;;;7387872;19;21047;-80
2022/01/23 11:33:30;;;;;;;2.05;1.88;;;5.80;99.90;;;;;;7388696;19;20410;-80
2022/01/23 11:35:55;;;;;;;1.50;1.40;;;5.90;99.90;;;;;;7389260;19;20650;-80
2022/01/23 11:38:23;;;;;;;1.67;1.30;;;5.80;99.90;;;;;;7389367;19;20974;-80
2022/01/23 11:55:03;;;;;;;1.50;1.40;;;5.60;99.90;;;;;;7294243;19;2004433;-82
2022/01/23 11:57:42;;;;;;;2.50;1.70;;;5.80;99.90;;;;;;7394301;19;20688;-81
2022/01/23 12:00:28;;;;;;;1.65;1.55;;;5.70;99.90;;;;;;7389745;19;20340;-80
2022/01/23 12:03:07;;;;;;;1.23;1.20;;;5.90;99.90;;;;;;7391867;19;20359;-81
2022/01/23 12:05:34;;;;;;;1.10;1.10;;;5.90;99.90;;;;;;7391877;19;20332;-80
2022/01/23 12:08:27;;;;;;;1.38;1.27;;;5.90;99.90;;;;;;7384650;19;20297;-82
2022/01/23 12:11:39;;;;;;;1.50;1.40;;;6.00;99.90;;;;;;7336668;19;20328;-80
2022/01/23 12:16:58;;;;;;;1.08;1.08;;;6.00;99.90;;;;;;7390137;19;20300;-80
2022/01/23 12:19:25;;;;;;;1.20;1.10;;;6.00;99.90;;;;;;7286682;19;2004374;-80
2022/01/23 12:21:55;;;;;;;1.20;1.10;;;6.00;99.90;;;;;;7387910;19;20423;-79
2022/01/23 12:24:23;;;;;;;1.52;1.42;;;6.00;99.90;;;;;;7387045;19;20899;-81
2022/01/23 12:26:49;;;;;;;1.20;1.10;;;5.90;99.90;;;;;;7386420;19;20301;-80
2022/01/23 12:29:23;;;;;;;1.30;1.20;;;5.90;99.90;;;;;;7386656;19;20355;-80
2022/01/23 12:31:49;;;;;;;1.40;1.30;;;6.00;99.90;;;;;;7373799;19;20922;-79
2022/01/23 12:34:15;;;;;;;1.10;1.10;;;6.10;99.90;;;;;;7387651;19;20351;-79
2022/01/23 12:36:40;;;;;;;1.30;1.20;;;6.10;99.90;;;;;;7388076;19;20324;-81
2022/01/23 12:39:09;;;;;;;0.90;0.90;;;6.20;99.90;;;;;;7390033;19;20345;-81
2022/01/23 12:41:39;;;;;;;1.02;1.02;;;6.20;99.90;;;;;;7390757;19;20325;-81
2022/01/23 12:44:23;;;;;;;1.10;1.10;;;6.20;99.90;;;;;;7392525;19;20344;-81
2022/01/23 12:46:53;;;;;;;1.90;1.20;;;6.20;99.90;;;;;;7286501;19;2004633;-82
2022/01/23 12:49:20;;;;;;;1.33;1.20;;;6.20;99.90;;;;;;7394019;19;21031;-80
2022/01/23 12:51:47;;;;;;;1.15;1.13;;;6.20;99.90;;;;;;7389503;19;20409;-79
2022/01/23 12:54:21;;;;;;;1.67;1.40;;;6.00;99.90;;;;;;7386540;19;20421;-81
2022/01/23 12:56:48;;;;;;;1.10;1.10;;;6.00;99.90;;;;;;7390994;19;20353;-78
2022/01/23 12:59:31;;;;;;;1.00;1.00;;;5.90;99.90;;;;;;7387787;19;20326;-80
2022/01/23 13:02:02;;;;;;;1.40;1.30;;;6.00;99.90;;;;;;7286801;19;2006475;-80
2022/01/23 13:04:32;;;;;;;1.58;1.00;;;6.10;99.90;;;;;;7384359;19;20324;-79
2022/01/23 13:07:04;;;;;;;1.10;1.00;;;5.80;99.90;;;;;;7386824;19;20337;-79
2022/01/23 13:12:30;;;;;;;0.80;0.80;;;5.80;99.90;;;;;;7387922;19;20325;-80
2022/01/23 13:17:54;;;;;;;0.80;0.80;;;5.90;99.90;;;;;;7388734;19;20340;-82
2022/01/23 13:32:03;;;;;;;1.07;1.07;;;5.90;99.90;;;;;;7289093;19;2004500;-80
2022/01/23 13:34:35;;;;;;;0.98;0.98;;;5.90;99.90;;;;;;7284530;19;2004405;-80
2022/01/23 13:37:03;;;;;;;1.00;1.00;;;5.90;99.90;;;;;;7389925;19;20360;-81
2022/01/23 13:39:40;;;;;;;1.20;1.20;;;6.00;99.90;;;;;;7392484;19;20353;-81
2022/01/23 13:42:18;;;;;;;1.10;1.10;;;5.90;99.90;;;;;;7389579;19;20968;-79
2022/01/23 13:59:14;;;;;;;0.90;0.90;;;5.80;99.90;;;;;;7386241;19;20335;-80
2022/01/23 14:04:19;;;;;;;0.90;0.90;;;5.70;99.90;;;;;;7387258;19;20348;-79
2022/01/23 14:06:45;;;;;;;0.85;0.85;;;5.70;99.90;;;;;;7385893;19;20344;-79
2022/01/23 14:09:12;;;;;;;2.83;2.28;;;5.70;99.90;;;;;;7387612;19;20380;-78
2022/01/23 14:11:39;;;;;;;0.98;0.98;;;5.70;99.90;;;;;;7386592;19;20337;-80
2022/01/23 14:14:13;;;;;;;1.73;1.02;;;5.90;99.90;;;;;;7391325;19;20333;-82
2022/01/23 14:16:39;;;;;;;0.90;0.90;;;5.90;99.90;;;;;;7397155;19;20320;-79
2022/01/23 14:19:19;;;;;;;0.73;0.73;;;5.90;99.90;;;;;;7389946;19;20362;-81
2022/01/23 14:21:59;;;;;;;0.95;0.90;;;5.90;99.90;;;;;;7268356;19;2004584;-81
2022/01/23 14:24:33;;;;;;;1.00;1.00;;;5.90;99.90;;;;;;7289845;19;2004491;-82
2022/01/23 14:27:07;;;;;;;0.90;0.90;;;5.80;99.90;;;;;;7292413;19;2004581;-82
2022/01/23 14:29:48;;;;;;;4.47;1.10;;;5.90;99.90;;;;;;7392927;19;20787;-79
2022/01/23 14:32:22;;;;;;;0.90;0.90;;;5.80;99.90;;;;;;7291425;19;2004402;-80
2022/01/23 14:34:48;;;;;;;1.02;1.00;;;5.70;99.90;;;;;;7386318;19;20305;-81
2022/01/23 14:37:13;;;;;;;0.80;0.80;;;5.80;99.90;;;;;;7395631;19;20333;-81
2022/01/23 14:39:39;;;;;;;1.30;1.20;;;5.80;99.90;;;;;;7391832;19;20309;-79
2022/01/23 14:42:10;;;;;;;1.17;1.10;;;6.00;99.90;;;;;;7393506;19;20352;-81
2022/01/23 14:44:36;;;;;;;1.02;0.90;;;5.90;99.90;;;;;;7387548;19;20391;-80
2022/01/23 14:47:01;;;;;;;1.00;1.00;;;5.90;99.90;;;;;;7391628;19;20337;-80
2022/01/23 14:49:29;;;;;;;1.10;1.00;;;5.90;99.90;;;;;;7393368;19;20325;-81
2022/01/23 14:51:57;;;;;;;1.00;1.00;;;5.90;99.90;;;;;;7388559;19;20868;-81
2022/01/23 14:54:24;;;;;;;1.00;1.00;;;6.00;99.90;;;;;;7392699;19;21059;-80
2022/01/23 14:56:51;;;;;;;1.10;1.10;;;6.10;99.90;;;;;;7395906;19;20308;-80
2022/01/23 14:59:16;;;;;;;1.30;1.20;;;5.90;99.90;;;;;;7396435;19;20353;-80
2022/01/23 15:01:43;;;;;;;1.50;1.27;;;5.80;99.90;;;;;;7371056;19;20337;-80
2022/01/23 15:04:10;;;;;;;1.90;1.40;;;5.70;99.90;;;;;;7391350;19;25016;-80
2022/01/23 15:06:36;;;;;;;1.23;1.20;;;5.70;99.90;;;;;;7387023;19;20345;-80
2022/01/23 15:09:07;;;;;;;1.50;1.40;;;5.80;99.90;;;;;;7391712;19;20336;-79
2022/01/23 15:11:33;;;;;;;1.50;1.40;;;5.70;99.90;;;;;;7391883;19;20313;-81
2022/01/23 15:13:59;;;;;;;2.03;1.33;;;5.80;99.90;;;;;;7386719;19;20379;-80
2022/01/23 15:16:25;;;;;;;2.27;1.97;;;5.70;99.90;;;;;;7396255;19;20336;-80
2022/01/23 15:18:50;;;;;;;1.35;1.25;;;5.70;99.90;;;;;;7395671;19;20337;-81
2022/01/23 15:21:17;;;;;;;1.10;1.10;;;5.80;99.90;;;;;;7388480;19;20324;-81
2022/01/23 15:23:43;;;;;;;2.05;1.85;;;5.90;99.90;;;;;;7392383;19;20317;-80
2022/01/23 15:26:08;;;;;;;1.83;1.70;;;5.80;99.90;;;;;;7389618;19;21228;-81
2022/01/23 15:28:34;;;;;;;1.53;1.43;;;5.90;99.90;;;;;;7391504;19;20321;-80
2022/01/23 15:31:00;;;;;;;1.67;1.58;;;5.90;99.90;;;;;;7395067;19;20332;-81
2022/01/23 15:33:26;;;;;;;1.75;1.65;;;5.90;99.90;;;;;;7391604;19;20686;-79
2022/01/23 15:35:52;;;;;;;2.10;1.97;;;5.90;99.90;;;;;;7394549;19;20317;-81
2022/01/23 15:38:19;;;;;;;2.60;2.40;;;5.90;99.90;;;;;;7389290;19;20792;-80
2022/01/23 15:40:45;;;;;;;2.20;2.00;;;5.90;99.90;;;;;;7389328;19;20317;-80
2022/01/23 15:43:12;;;;;;;2.20;2.00;;;5.90;99.90;;;;;;7391305;19;20329;-80
2022/01/23 15:45:38;;;;;;;2.30;2.10;;;6.00;99.90;;;;;;7389105;19;20341;-81
2022/01/23 15:48:04;;;;;;;2.65;2.33;;;6.00;99.90;;;;;;7393121;19;20910;-80
2022/01/23 15:50:33;;;;;;;2.20;2.00;;;6.10;99.90;;;;;;7391996;19;20321;-81
2022/01/23 15:52:58;;;;;;;2.22;2.03;;;6.10;99.90;;;;;;7391883;19;20432;-79
2022/01/23 15:55:27;;;;;;;2.17;1.80;;;6.00;99.90;;;;;;7388727;19;20692;-79
2022/01/23 15:57:56;;;;;;;1.60;1.50;;;6.00;99.90;;;;;;7393731;19;20312;-80
2022/01/23 16:00:22;;;;;;;2.17;1.97;;;6.00;99.90;;;;;;7390668;19;20335;-80
2022/01/23 16:02:48;;;;;;;1.40;1.40;;;6.10;99.90;;;;;;7372423;19;20316;-80
2022/01/23 16:05:15;;;;;;;1.98;1.88;;;5.90;99.90;;;;;;7396660;19;20317;-82
2022/01/23 16:07:41;;;;;;;3.60;2.10;;;6.00;99.90;;;;;;7391792;19;22118;-79
2022/01/23 16:10:07;;;;;;;2.10;1.90;;;5.90;99.90;;;;;;7387887;19;20318;-79
2022/01/23 16:12:33;;;;;;;2.27;2.07;;;5.90;99.90;;;;;;7393030;19;20305;-80
2022/01/23 16:14:58;;;;;;;5.80;4.63;;;5.90;99.90;;;;;;7387539;19;20435;-80
2022/01/23 16:17:24;;;;;;;4.75;4.10;;;5.90;99.90;;;;;;7393683;19;20340;-79
2022/01/23 16:19:54;;;;;;;4.43;3.70;;;5.80;99.90;;;;;;7391711;19;20301;-83
2022/01/23 16:22:20;;;;;;;4.60;4.20;;;5.70;99.90;;;;;;7389561;19;20344;-81
2022/01/23 16:24:46;;;;;;;3.10;2.80;;;5.70;99.90;;;;;;7388377;19;20338;-80
2022/01/23 16:27:13;;;;;;;5.03;4.00;;;5.70;99.90;;;;;;7390347;19;20408;-80
2022/01/23 16:29:39;;;;;;;10.33;5.40;;;5.60;99.90;;;;;;7387900;19;20354;-80
2022/01/23 16:32:05;;;;;;;4.70;4.30;;;5.70;99.90;;;;;;7390945;19;20929;-79
2022/01/23 16:34:32;;;;;;;3.20;2.90;;;5.60;99.90;;;;;;7392289;19;20308;-79
2022/01/23 16:36:58;;;;;;;1.70;1.60;;;5.60;99.90;;;;;;7388572;19;20349;-80
2022/01/23 16:39:23;;;;;;;1.80;1.70;;;5.50;99.90;;;;;;7389064;19;20356;-80
2022/01/23 16:41:51;;;;;;;1.70;1.60;;;5.50;99.90;;;;;;7390144;19;20325;-79